Painton, Missouri
Current Conditions -  °F | °C
As of 8:53 AM on Sunday 21 Dec 2014 (Local Time) from KCGI Reporting Station
Haze Haze  
Wind Chill: 33°   Ceiling: Unl
Heat Index: 33°   Visibility: 6mi
Dew Point: 30°   Wind: 3mph
Humidity: 89%   Direction: 100°E
Pressure: 30.24"   Gusts: NA
Location:  37.08°N, 89.79°W
Report Text: KCGI 211453Z 10003KT 6SM BR CLR 01/M01 A3024 RMK AO2 SLP243 T00061011 58002
Loading
Personal Weather Stations






























Interactive Weather Map New forecast layout! Learn more

10-Day Weather Forecast

Advertisements
Track Severe Weather on mobile